createdAt,value
2019-01-17T00:01:54.834Z,98438.37
2019-01-17T00:04:44.606Z,98436.62
2019-01-17T00:07:16.091Z,98443.36
2019-01-17T00:09:56.339Z,98420.89
2019-01-17T00:12:27.337Z,98421.30
2019-01-17T00:14:58.598Z,98425.59
2019-01-17T00:17:29.598Z,98429.57
2019-01-17T00:20:19.081Z,98430.02
2019-01-17T00:22:50.449Z,98431.22
2019-01-17T00:25:21.512Z,98427.28
2019-01-17T00:27:55.444Z,98425.98
2019-01-17T00:30:44.404Z,98431.28
2019-01-17T00:33:24.127Z,98426.58
2019-01-17T00:35:55.133Z,98435.87
2019-01-17T00:38:26.132Z,98430.22
2019-01-17T00:41:00.065Z,98441.42
2019-01-17T00:43:46.445Z,98437.41
2019-01-17T00:46:17.456Z,98439.83
2019-01-17T00:49:00.429Z,98441.52
2019-01-17T00:51:48.025Z,98444.11
2019-01-17T00:54:19.016Z,98438.52
2019-01-17T00:56:56.008Z,98442.37
2019-01-17T00:59:35.540Z,98434.35
2019-01-17T01:02:19.025Z,98441.35
2019-01-17T01:05:06.962Z,98444.56
2019-01-17T01:07:53.798Z,98440.36
2019-01-17T01:10:33.452Z,98441.36
2019-01-17T01:13:07.116Z,98447.50
2019-01-17T01:15:55.407Z,98445.78
2019-01-17T01:18:32.135Z,98454.45
2019-01-17T01:21:19.239Z,98441.34
2019-01-17T01:23:56.328Z,98437.24
2019-01-17T01:26:33.277Z,98452.92
2019-01-17T01:29:20.730Z,98448.77
2019-01-17T01:31:57.982Z,98453.77
2019-01-17T01:34:31.846Z,98453.19
2019-01-17T01:37:12.072Z,98462.77
2019-01-17T01:39:59.292Z,98454.28
2019-01-17T01:42:39.233Z,98458.52
2019-01-17T01:45:16.726Z,98465.14
2019-01-17T01:47:53.865Z,98474.92
2019-01-17T01:50:25.194Z,98467.50
2019-01-17T01:53:04.884Z,98462.95
2019-01-17T01:55:34.400Z,98477.92
2019-01-17T01:58:04.733Z,98458.17
2019-01-17T02:00:34.238Z,98468.06
2019-01-17T02:03:05.073Z,98475.38
2019-01-17T02:05:34.436Z,98468.77
2019-01-17T02:08:04.099Z,98484.29
2019-01-17T02:10:33.969Z,98480.02
2019-01-17T02:13:03.949Z,98488.48
2019-01-17T02:15:33.321Z,98484.70
2019-01-17T02:18:02.686Z,98477.05
2019-01-17T02:20:32.126Z,98475.09
2019-01-17T02:23:01.874Z,98481.47
2019-01-17T02:25:31.247Z,98463.25
2019-01-17T02:28:00.631Z,98485.44
2019-01-17T02:30:31.104Z,98484.65
2019-01-17T02:33:00.488Z,98483.60
2019-01-17T02:35:29.840Z,98487.86
2019-01-17T02:37:59.509Z,98485.02
2019-01-17T02:40:31.133Z,98477.72
2019-01-17T02:43:00.212Z,98466.84
2019-01-17T02:45:29.574Z,98482.88
2019-01-17T02:47:59.015Z,98480.01
2019-01-17T02:50:28.380Z,98483.09
2019-01-17T02:52:58.882Z,98486.38
2019-01-17T02:55:28.234Z,98468.98
2019-01-17T02:57:57.894Z,98471.48
2019-01-17T03:00:27.281Z,98466.57
2019-01-17T03:02:56.683Z,98466.84
2019-01-17T03:05:26.042Z,98460.20
2019-01-17T03:07:55.716Z,98459.85
2019-01-17T03:10:25.075Z,98455.56
2019-01-17T03:12:54.770Z,98447.32
2019-01-17T03:15:24.163Z,98451.95
2019-01-17T03:17:53.820Z,98439.86
2019-01-17T03:20:23.256Z,98447.38
2019-01-17T03:22:53.611Z,98436.58
2019-01-17T03:25:22.961Z,98432.83
2019-01-17T03:27:52.339Z,98440.89
2019-01-17T03:30:21.699Z,98439.53
2019-01-17T03:32:51.086Z,98446.05
2019-01-17T03:35:20.440Z,98443.64
2019-01-17T03:37:49.852Z,98453.39
2019-01-17T03:40:19.252Z,98464.63
2019-01-17T03:42:48.616Z,98464.69
2019-01-17T03:45:18.039Z,98480.41
2019-01-17T03:47:47.394Z,98480.82
2019-01-17T03:50:17.121Z,98475.38
2019-01-17T03:52:46.484Z,98475.34
2019-01-17T03:55:16.998Z,98470.02
2019-01-17T03:57:46.475Z,98465.47
2019-01-17T04:00:19.278Z,98461.80
2019-01-17T04:02:48.945Z,98454.23
2019-01-17T04:05:18.786Z,98452.05
2019-01-17T04:08:00.135Z,98456.75
2019-01-17T04:10:30.189Z,98452.23
2019-01-17T04:12:59.562Z,98445.19
2019-01-17T04:15:28.918Z,98449.17
2019-01-17T04:17:58.292Z,98444.66
2019-01-17T04:20:27.667Z,98448.77
2019-01-17T04:22:57.021Z,98446.08
2019-01-17T04:25:26.393Z,98446.89
2019-01-17T04:27:55.757Z,98452.09
2019-01-17T04:30:25.132Z,98448.92
2019-01-17T04:32:54.486Z,98446.41
2019-01-17T04:35:24.208Z,98455.86
2019-01-17T04:37:53.558Z,98455.73
2019-01-17T04:40:22.947Z,98447.34
2019-01-17T04:42:52.293Z,98449.02
2019-01-17T04:45:21.664Z,98450.25
2019-01-17T04:47:51.257Z,98451.45
2019-01-17T04:50:20.974Z,98442.96
2019-01-17T04:52:50.337Z,98444.22
2019-01-17T04:55:20.734Z,98450.34
2019-01-17T04:57:50.379Z,98444.04
2019-01-17T05:00:21.182Z,98430.95
2019-01-17T05:02:50.610Z,98429.78
2019-01-17T05:05:20.044Z,98429.64
2019-01-17T05:07:49.475Z,98441.23
2019-01-17T05:10:18.927Z,98437.58
2019-01-17T05:12:48.294Z,98442.88
2019-01-17T05:15:17.655Z,98449.57
2019-01-17T05:17:47.273Z,98453.70
2019-01-17T05:20:17.513Z,98457.91
2019-01-17T05:22:46.876Z,98453.09
2019-01-17T05:25:16.236Z,98453.02
2019-01-17T05:27:45.656Z,98457.67
2019-01-17T05:30:19.415Z,98456.73
2019-01-17T05:32:48.840Z,98455.77
2019-01-17T05:35:19.178Z,98469.90
2019-01-17T05:37:48.540Z,98461.48
2019-01-17T05:40:19.816Z,98465.16
2019-01-17T05:42:49.172Z,98460.51
2019-01-17T05:45:18.624Z,98454.84
2019-01-17T05:47:48.432Z,98446.39
2019-01-17T05:50:19.160Z,98436.26
2019-01-17T05:52:48.634Z,98437.31
2019-01-17T05:55:20.049Z,98444.62
2019-01-17T05:57:49.084Z,98443.84
2019-01-17T06:00:21.056Z,98443.09
2019-01-17T06:02:50.486Z,98437.60
2019-01-17T06:05:20.591Z,98440.05
2019-01-17T06:07:49.953Z,98449.05
2019-01-17T06:10:19.311Z,98437.45
2019-01-17T06:13:08.386Z,98450.14
2019-01-17T06:15:38.238Z,98440.05
2019-01-17T06:18:07.605Z,98437.31
2019-01-17T06:20:36.963Z,98432.91
2019-01-17T06:23:06.752Z,98433.11
2019-01-17T06:25:36.780Z,98430.97
2019-01-17T06:28:06.158Z,98432.17
2019-01-17T06:30:35.855Z,98438.55
2019-01-17T06:33:05.690Z,98431.64
2019-01-17T06:35:35.046Z,98425.36
2019-01-17T06:38:04.415Z,98425.60
2019-01-17T06:40:33.847Z,98422.55
2019-01-17T06:43:03.254Z,98417.68
2019-01-17T06:45:33.766Z,98413.09
2019-01-17T06:48:03.484Z,98419.66
2019-01-17T06:50:34.376Z,98414.44
2019-01-17T06:53:03.758Z,98417.85
2019-01-17T06:55:34.565Z,98413.98
2019-01-17T06:58:04.161Z,98413.69
2019-01-17T07:00:33.586Z,98421.95
2019-01-17T07:03:02.957Z,98419.50
2019-01-17T07:05:32.333Z,98415.56
2019-01-17T07:08:01.697Z,98415.51
2019-01-17T07:10:31.060Z,98417.23
2019-01-17T07:13:00.437Z,98420.47
2019-01-17T07:15:29.794Z,98412.16
2019-01-17T07:17:59.164Z,98413.63
2019-01-17T07:20:28.971Z,98401.09
2019-01-17T07:22:58.333Z,98410.55
2019-01-17T07:25:28.244Z,98407.11
2019-01-17T07:27:57.645Z,98411.78
2019-01-17T07:30:27.076Z,98409.23
2019-01-17T07:32:56.752Z,98419.59
2019-01-17T07:35:26.214Z,98411.33
2019-01-17T07:37:55.575Z,98417.80
2019-01-17T07:40:24.935Z,98420.30
2019-01-17T07:42:54.311Z,98418.02
2019-01-17T07:45:26.789Z,98413.04
2019-01-17T07:47:56.129Z,98415.05
2019-01-17T07:50:25.749Z,98404.77
2019-01-17T07:52:55.099Z,98410.43
2019-01-17T07:55:25.611Z,98408.63
2019-01-17T07:57:55.042Z,98426.77
2019-01-17T08:00:25.079Z,98415.14
2019-01-17T08:02:54.797Z,98420.84
2019-01-17T08:05:24.164Z,98417.08
2019-01-17T08:07:53.519Z,98428.12
2019-01-17T08:10:23.134Z,98431.38
2019-01-17T08:12:52.564Z,98424.91
2019-01-17T08:15:22.660Z,98419.83
2019-01-17T08:17:52.297Z,98409.53
2019-01-17T08:20:23.988Z,98411.52
2019-01-17T08:22:53.813Z,98416.88
2019-01-17T08:25:23.271Z,98403.89
2019-01-17T08:27:52.714Z,98406.41
2019-01-17T08:30:26.966Z,98414.97
2019-01-17T08:32:56.320Z,98421.78
2019-01-17T08:35:25.686Z,98401.37
2019-01-17T08:37:56.831Z,98401.80
2019-01-17T08:40:31.484Z,98390.95
2019-01-17T08:43:01.007Z,98390.47
2019-01-17T08:45:30.643Z,98384.78
2019-01-17T08:48:00.375Z,98345.55
2019-01-17T08:50:30.059Z,98387.95
2019-01-17T08:52:59.416Z,98381.69
2019-01-17T08:55:28.800Z,98373.62
2019-01-17T08:57:58.501Z,98381.88
2019-01-17T09:00:28.052Z,98386.05
2019-01-17T09:02:57.407Z,98381.12
2019-01-17T09:05:26.775Z,98377.84
2019-01-17T09:07:56.135Z,98379.17
2019-01-17T09:10:28.622Z,98366.08
2019-01-17T09:12:58.042Z,98369.66
2019-01-17T09:15:32.703Z,98362.73
2019-01-17T09:18:03.121Z,98368.61
2019-01-17T09:20:32.536Z,98362.98
2019-01-17T09:23:02.318Z,98364.19
2019-01-17T09:25:31.688Z,98337.84
2019-01-17T09:28:01.059Z,98361.41
2019-01-17T09:30:30.431Z,98342.72
2019-01-17T09:32:59.796Z,98346.67
2019-01-17T09:35:29.162Z,98310.14
2019-01-17T09:37:58.536Z,98347.84
2019-01-17T09:40:28.182Z,98343.95
2019-01-17T09:42:57.566Z,98353.78
2019-01-17T09:45:27.179Z,98349.72
2019-01-17T09:47:56.554Z,98367.09
2019-01-17T09:50:26.722Z,98365.64
2019-01-17T09:52:56.303Z,98355.61
2019-01-17T09:55:25.674Z,98346.66
2019-01-17T09:57:55.136Z,98360.62
2019-01-17T10:00:29.849Z,98367.21
2019-01-17T10:02:59.735Z,98367.83
2019-01-17T10:05:29.182Z,98363.86
2019-01-17T10:08:10.714Z,98381.37
2019-01-17T10:10:40.087Z,98371.14
2019-01-17T10:13:09.472Z,98351.05
2019-01-17T10:15:43.465Z,98371.09
2019-01-17T10:18:52.128Z,98373.64
2019-01-17T10:21:40.768Z,98375.84
2019-01-17T10:24:32.525Z,98375.66
2019-01-17T10:27:15.732Z,98352.99
2019-01-17T10:30:07.697Z,98378.06
2019-01-17T10:32:59.207Z,98380.52
2019-01-17T10:35:45.506Z,98359.91
2019-01-17T10:38:34.565Z,98374.05
2019-01-17T10:41:35.755Z,98375.27
2019-01-17T10:44:27.443Z,98383.66
2019-01-17T10:47:07.040Z,98385.17
2019-01-17T10:50:09.596Z,98393.92
2019-01-17T10:53:07.179Z,98387.81
2019-01-17T10:55:52.921Z,98385.08
2019-01-17T10:59:03.030Z,98396.52
2019-01-17T11:01:49.206Z,98392.70
2019-01-17T11:04:35.457Z,98400.48
2019-01-17T11:07:24.526Z,98398.84
2019-01-17T11:10:14.908Z,98387.58
2019-01-17T11:12:57.460Z,98392.93
2019-01-17T11:16:09.945Z,98388.95
2019-01-17T11:18:53.151Z,98393.52
2019-01-17T11:22:30.013Z,98390.07
2019-01-17T11:25:24.979Z,98398.47
2019-01-17T11:28:32.338Z,98390.08
2019-01-17T11:31:21.333Z,98408.08
2019-01-17T11:34:31.878Z,98407.45
2019-01-17T11:37:33.507Z,98407.98
2019-01-17T11:40:41.851Z,98421.10
2019-01-17T11:43:53.600Z,98431.96
2019-01-17T11:46:46.189Z,98437.74
2019-01-17T11:49:31.260Z,98458.00
2019-01-17T11:52:23.101Z,98459.61
2019-01-17T11:55:18.130Z,98451.23
2019-01-17T11:58:10.319Z,98468.63
2019-01-17T12:01:07.795Z,98474.70
2019-01-17T12:03:57.169Z,98476.91
2019-01-17T12:06:26.883Z,98475.17
2019-01-17T12:08:56.248Z,98484.01
2019-01-17T12:11:25.697Z,98489.34
2019-01-17T12:13:55.385Z,98492.82
2019-01-17T12:16:24.753Z,98486.03
2019-01-17T12:18:54.111Z,98507.14
2019-01-17T12:21:23.811Z,98498.84
2019-01-17T12:23:53.253Z,98505.36
2019-01-17T12:26:22.629Z,98501.47
2019-01-17T12:28:52.106Z,98502.59
2019-01-17T12:31:21.708Z,98517.73
2019-01-17T12:33:51.078Z,98506.77
2019-01-17T12:36:20.670Z,98512.55
2019-01-17T12:38:50.926Z,98515.14
2019-01-17T12:41:20.356Z,98521.27
2019-01-17T12:43:50.059Z,98520.56
2019-01-17T12:46:19.422Z,98519.69
2019-01-17T12:48:49.028Z,98528.41
2019-01-17T12:51:18.705Z,98530.94
2019-01-17T12:53:48.082Z,98524.89
2019-01-17T12:56:17.453Z,98535.97
2019-01-17T12:58:46.833Z,98531.98
2019-01-17T13:01:16.221Z,98533.92
2019-01-17T13:03:45.811Z,98532.45
2019-01-17T13:06:15.981Z,98532.03
2019-01-17T13:08:45.387Z,98543.39
2019-01-17T13:11:14.751Z,98529.17
2019-01-17T13:13:44.129Z,98538.22
2019-01-17T13:16:13.501Z,98546.36
2019-01-17T13:18:43.256Z,98555.64
2019-01-17T13:21:12.773Z,98559.92
2019-01-17T13:23:42.136Z,98560.03
2019-01-17T13:26:11.585Z,98572.58
2019-01-17T13:28:40.968Z,98582.38
2019-01-17T13:31:10.675Z,98583.24
2019-01-17T13:33:40.058Z,98569.39
2019-01-17T13:36:11.787Z,98575.15
2019-01-17T13:38:41.653Z,98572.46
2019-01-17T13:41:11.339Z,98576.09
2019-01-17T13:43:40.723Z,98582.11
2019-01-17T13:46:10.566Z,98585.91
2019-01-17T13:48:39.919Z,98584.88
2019-01-17T13:51:09.289Z,98593.75
2019-01-17T13:53:39.757Z,98607.38
2019-01-17T13:56:09.486Z,98648.08
2019-01-17T13:58:38.877Z,98643.50
2019-01-17T14:01:08.368Z,98647.86
2019-01-17T14:03:37.713Z,98640.05
2019-01-17T14:06:07.741Z,98643.63
2019-01-17T14:08:37.116Z,98653.38
2019-01-17T14:11:06.856Z,98660.52
2019-01-17T14:13:36.225Z,98670.09
2019-01-17T14:16:06.001Z,98671.47
2019-01-17T14:18:35.678Z,98681.34
2019-01-17T14:21:05.051Z,98680.87
2019-01-17T14:23:34.419Z,98683.54
2019-01-17T14:26:04.703Z,98684.36
2019-01-17T14:28:34.069Z,98691.58
2019-01-17T14:31:03.506Z,98695.41
2019-01-17T14:33:33.215Z,98704.59
2019-01-17T14:36:02.597Z,98715.86
2019-01-17T14:38:31.962Z,98721.39
2019-01-17T14:41:01.327Z,98716.69
2019-01-17T14:43:30.754Z,98737.44
2019-01-17T14:46:00.123Z,98727.64
2019-01-17T14:48:29.490Z,98742.41
2019-01-17T14:50:58.847Z,98756.64
2019-01-17T14:53:28.214Z,98763.03
2019-01-17T14:55:58.725Z,98765.93
2019-01-17T14:58:28.082Z,98763.67
2019-01-17T15:00:57.456Z,98770.84
2019-01-17T15:03:26.821Z,98771.72
2019-01-17T15:05:56.186Z,98769.80
2019-01-17T15:08:25.792Z,98771.03
2019-01-17T15:10:55.179Z,98773.67
2019-01-17T15:13:24.553Z,98786.45
2019-01-17T15:15:53.923Z,98795.61
2019-01-17T15:18:23.288Z,98801.97
2019-01-17T15:20:52.655Z,98795.53
2019-01-17T15:23:22.295Z,98805.25
2019-01-17T15:25:51.673Z,98818.78
2019-01-17T15:28:21.039Z,98821.19
2019-01-17T15:30:50.405Z,98831.42
2019-01-17T15:33:20.030Z,98835.08
2019-01-17T15:35:49.397Z,98834.90
2019-01-17T15:38:18.764Z,98844.69
2019-01-17T15:40:48.418Z,98842.92
2019-01-17T15:43:17.788Z,98847.48
2019-01-17T15:45:47.143Z,98865.44
2019-01-17T15:48:16.779Z,98863.75
2019-01-17T15:50:46.386Z,98868.78
2019-01-17T15:53:15.762Z,98863.88
2019-01-17T15:55:45.137Z,98870.47
2019-01-17T15:58:14.502Z,98882.17
2019-01-17T16:00:43.864Z,98883.42
2019-01-17T16:03:13.247Z,98888.92
2019-01-17T16:05:42.880Z,98894.34
2019-01-17T16:08:12.260Z,98898.62
2019-01-17T16:10:41.626Z,98913.45
2019-01-17T16:13:11.410Z,98915.57
2019-01-17T16:15:42.166Z,98915.48
2019-01-17T16:18:11.829Z,98918.94
2019-01-17T16:20:41.213Z,98913.95
2019-01-17T16:23:10.566Z,98929.66
2019-01-17T16:25:40.171Z,98932.20
2019-01-17T16:28:09.542Z,98930.12
2019-01-17T16:30:38.916Z,98927.77
2019-01-17T16:33:09.169Z,98936.37
2019-01-17T16:35:38.767Z,98940.30
2019-01-17T16:38:09.680Z,98940.58
2019-01-17T16:40:39.050Z,98943.44
2019-01-17T16:43:08.408Z,98944.18
2019-01-17T16:45:42.336Z,98946.89
2019-01-17T16:48:11.702Z,98939.58
2019-01-17T16:50:42.613Z,98943.73
2019-01-17T16:53:15.545Z,98940.92
2019-01-17T16:55:46.557Z,98936.12
2019-01-17T16:58:15.932Z,98937.83
2019-01-17T17:00:50.868Z,98934.59
2019-01-17T17:03:20.507Z,98932.38
2019-01-17T17:05:49.856Z,98932.55
2019-01-17T17:08:19.687Z,98936.99
2019-01-17T17:10:49.969Z,98945.68
2019-01-17T17:13:21.046Z,98958.04
2019-01-17T17:15:53.482Z,98962.17
2019-01-17T17:18:24.320Z,98956.34
2019-01-17T17:20:55.966Z,98969.59
2019-01-17T17:23:26.208Z,98959.92
2019-01-17T17:25:55.564Z,98958.50
2019-01-17T17:28:25.699Z,98965.27
2019-01-17T17:30:55.044Z,98970.97
2019-01-17T17:33:24.731Z,98967.09
2019-01-17T17:35:54.120Z,98961.75
2019-01-17T17:38:23.493Z,98970.22
2019-01-17T17:40:53.098Z,98971.13
2019-01-17T17:43:22.570Z,98964.36
2019-01-17T17:45:51.935Z,98968.86
2019-01-17T17:48:24.157Z,98977.00
2019-01-17T17:50:52.809Z,98969.50
2019-01-17T17:53:22.249Z,98966.86
2019-01-17T17:55:53.772Z,98968.59
2019-01-17T17:58:24.589Z,98972.22
2019-01-17T18:00:56.595Z,98973.07
2019-01-17T18:03:27.264Z,98975.02
2019-01-17T18:05:56.789Z,98968.08
2019-01-17T18:08:26.169Z,98967.11
2019-01-17T18:10:55.641Z,98986.20
2019-01-17T18:13:31.104Z,98988.52
2019-01-17T18:16:00.645Z,98993.19
2019-01-17T18:18:30.564Z,99008.00
2019-01-17T18:21:30.377Z,99010.04
2019-01-17T18:24:02.409Z,99030.59
2019-01-17T18:26:35.391Z,99031.30
2019-01-17T18:29:05.692Z,99023.39
2019-01-17T18:31:35.073Z,99033.57
2019-01-17T18:34:04.710Z,99046.20
2019-01-17T18:36:34.328Z,99042.77
2019-01-17T18:39:06.874Z,99060.77
2019-01-17T18:41:36.239Z,99067.19
2019-01-17T18:44:05.947Z,99082.36
2019-01-17T18:46:35.331Z,99082.53
2019-01-17T18:49:04.938Z,99078.20
2019-01-17T18:51:34.309Z,99090.53
2019-01-17T18:54:03.752Z,99095.78
2019-01-17T18:56:33.281Z,99104.89
2019-01-17T18:59:02.740Z,99114.11
2019-01-17T19:01:32.176Z,99121.47
2019-01-17T19:04:03.238Z,99129.80
2019-01-17T19:06:32.698Z,99131.59
2019-01-17T19:09:02.414Z,99139.09
2019-01-17T19:11:32.489Z,99144.15
2019-01-17T19:14:01.805Z,99158.50
2019-01-17T19:16:31.279Z,99163.56
2019-01-17T19:19:00.665Z,99171.75
2019-01-17T19:21:49.633Z,99173.41
2019-01-17T19:24:19.148Z,99183.43
2019-01-17T19:26:48.750Z,99190.09
2019-01-17T19:29:18.157Z,99196.61
2019-01-17T19:31:49.886Z,99213.77
2019-01-17T19:34:19.391Z,99226.41
2019-01-17T19:36:50.676Z,99230.48
2019-01-17T19:41:56.187Z,99240.84
2019-01-17T19:44:27.654Z,99241.05
2019-01-17T19:46:57.080Z,99254.37
2019-01-17T19:49:28.320Z,99264.09
2019-01-17T19:51:57.738Z,99274.25
2019-01-17T19:54:27.703Z,99275.30
2019-01-17T19:57:00.533Z,99282.91
2019-01-17T19:59:30.276Z,99284.81
2019-01-17T20:02:00.291Z,99283.23
2019-01-17T20:04:29.741Z,99291.17
2019-01-17T20:06:59.124Z,99301.33
2019-01-17T20:09:28.622Z,99310.38
2019-01-17T20:11:59.104Z,99310.96
2019-01-17T20:14:28.575Z,99310.81
2019-01-17T20:16:58.681Z,99315.61
2019-01-17T20:19:28.563Z,99326.78
2019-01-17T20:21:58.060Z,99321.20
2019-01-17T20:24:27.781Z,99327.45
2019-01-17T20:26:57.516Z,99330.11
2019-01-17T20:29:26.920Z,99336.76
2019-01-17T20:31:56.438Z,99335.92
2019-01-17T20:34:25.801Z,99340.35
2019-01-17T20:36:55.249Z,99343.78
2019-01-17T20:39:24.816Z,99356.93
2019-01-17T20:41:54.451Z,99365.11
2019-01-17T20:44:24.700Z,99362.21
2019-01-17T20:46:54.486Z,99369.88
2019-01-17T20:49:24.498Z,99372.59
2019-01-17T20:51:53.885Z,99378.77
2019-01-17T20:54:23.608Z,99383.67
2019-01-17T20:56:53.558Z,99391.73
2019-01-17T20:59:23.081Z,99400.45
2019-01-17T21:02:03.081Z,99404.22
2019-01-17T21:04:32.629Z,99409.88
2019-01-17T21:07:05.624Z,99410.37
2019-01-17T21:09:33.661Z,99407.52
2019-01-17T21:12:03.305Z,99413.97
2019-01-17T21:14:32.802Z,99414.41
2019-01-17T21:17:02.491Z,99419.24
2019-01-17T21:19:32.021Z,99414.44
2019-01-17T21:22:01.399Z,99422.60
2019-01-17T21:24:30.791Z,99427.73
2019-01-17T21:27:00.463Z,99429.34
2019-01-17T21:29:30.126Z,99428.87
2019-01-17T21:31:59.743Z,99431.34
2019-01-17T21:34:29.219Z,99439.01
2019-01-17T21:36:58.572Z,99438.38
2019-01-17T21:39:28.043Z,99434.09
2019-01-17T21:41:57.413Z,99436.91
2019-01-17T21:44:26.914Z,99442.83
2019-01-17T21:46:56.358Z,99441.77
2019-01-17T21:49:25.980Z,99446.09
2019-01-17T21:51:55.370Z,99455.47
2019-01-17T21:54:24.805Z,99457.69
2019-01-17T21:56:54.173Z,99463.40
2019-01-17T21:59:23.566Z,99465.53
2019-01-17T22:01:52.959Z,99459.08
2019-01-17T22:04:22.672Z,99463.53
2019-01-17T22:06:52.074Z,99471.24
2019-01-17T22:09:21.549Z,99472.60
2019-01-17T22:11:50.941Z,99476.04
2019-01-17T22:14:20.315Z,99483.17
2019-01-17T22:16:49.731Z,99491.31
2019-01-17T22:19:19.139Z,99494.84
2019-01-17T22:21:48.524Z,99493.97
2019-01-17T22:24:17.951Z,99501.76
2019-01-17T22:26:47.604Z,99506.59
2019-01-17T22:29:17.323Z,99509.27
2019-01-17T22:31:46.958Z,99506.90
2019-01-17T22:34:16.390Z,99497.08
2019-01-17T22:36:45.787Z,99506.98
2019-01-17T22:39:15.166Z,99508.63
2019-01-17T22:41:44.581Z,99516.52
2019-01-17T22:44:14.040Z,99523.69
2019-01-17T22:46:43.647Z,99526.51
2019-01-17T22:49:13.079Z,99528.08
2019-01-17T22:51:42.398Z,99534.30
2019-01-17T22:54:12.097Z,99528.64
2019-01-17T22:56:42.206Z,99533.88
2019-01-17T22:59:12.274Z,99541.94
2019-01-17T23:01:41.721Z,99543.53
2019-01-17T23:04:11.084Z,99531.56
2019-01-17T23:06:40.497Z,99539.79
2019-01-17T23:09:09.983Z,99537.56
2019-01-17T23:11:39.319Z,99539.76
2019-01-17T23:14:11.894Z,99542.14
2019-01-17T23:16:41.269Z,99541.05
2019-01-17T23:19:10.692Z,99543.37
2019-01-17T23:21:40.136Z,99541.17
2019-01-17T23:24:09.748Z,99549.04
2019-01-17T23:26:39.391Z,99547.37
2019-01-17T23:29:08.779Z,99561.32
2019-01-17T23:31:38.163Z,99560.43
2019-01-17T23:34:07.572Z,99563.72
2019-01-17T23:36:36.935Z,99563.23
2019-01-17T23:39:08.179Z,99569.56
2019-01-17T23:41:37.584Z,99580.53
2019-01-17T23:44:07.062Z,99581.61
2019-01-17T23:46:36.386Z,99584.39
2019-01-17T23:49:05.824Z,99586.48
2019-01-17T23:51:35.261Z,99581.93
2019-01-17T23:54:04.612Z,99582.82
2019-01-17T23:56:34.024Z,99579.66
2019-01-17T23:59:03.403Z,99591.95
